Time;durP1;ratioP1;P1;durP2;ratioP2;P2;SDS_P1;SDS_P2;PMS_P1;PMS_P2;Temp;Humidity;BMP_temperature;BMP_pressure;BME280_temperature;BME280_humidity;BME280_pressure;Samples;Min_cycle;Max_cycle;Signal;HPM_P1;HPM_P2
2023/03/04 00:00:23;;;;;;;;;;;;;;;3.46;84.19;99918.41;5071099;28;19912;-83
2023/03/04 00:02:48;;;;;;;;;;;;;;;3.73;84.03;99917.09;5070647;28;20492;-82
2023/03/04 00:05:14;;;;;;;;;;;;;;;3.91;83.60;99903.47;5070568;28;19916;-82
2023/03/04 00:07:39;;;;;;;;;;;;;;;4.05;83.52;99906.28;5070350;28;19916;-83
2023/03/04 00:10:05;;;;;;;;;;;;;;;4.25;82.96;99901.34;5070997;28;19917;-82
2023/03/04 00:12:30;;;;;;;;;;;;;;;4.28;82.37;99896.16;5086353;28;19916;-82
2023/03/04 00:14:55;;;;;;;;;;;;;;;4.21;82.46;99889.97;5070678;28;19912;-83
2023/03/04 00:17:21;;;;;;;;;;;;;;;4.34;82.41;99896.25;5069360;28;19916;-82
2023/03/04 00:19:46;;;;;;;;;;;;;;;4.12;83.43;99882.00;5073970;28;19955;-82
2023/03/04 00:22:11;;;;;;;;;;;;;;;4.26;82.71;99885.69;5073969;28;19960;-82
2023/03/04 00:24:37;;;;;;;;;;;;;;;4.39;82.68;99881.50;5074561;28;19951;-82
2023/03/04 00:27:02;;;;;;;;;;;;;;;4.35;82.51;99874.47;5074016;28;19912;-82
2023/03/04 00:29:28;;;;;;;;;;;;;;;4.34;82.53;99880.59;5074481;28;19912;-82
2023/03/04 00:31:53;;;;;;;;;;;;;;;4.30;82.60;99891.84;5074574;28;19917;-82
2023/03/04 00:34:19;;;;;;;;;;;;;;;4.28;82.84;99886.59;5074300;28;19926;-81
2023/03/04 00:36:44;;;;;;;;;;;;;;;4.52;82.17;99886.88;5073931;28;19912;-82
2023/03/04 00:39:11;;;;;;;;;;;;;;;4.58;81.86;99886.97;5074613;28;19916;-82
2023/03/04 00:41:36;;;;;;;;;;;;;;;4.73;81.31;99887.16;5074059;28;19943;-82
2023/03/04 00:44:01;;;;;;;;;;;;;;;4.65;81.23;99888.81;5073849;28;19920;-82
2023/03/04 00:46:27;;;;;;;;;;;;;;;4.57;81.48;99895.66;5073572;28;19973;-90
2023/03/04 00:48:52;;;;;;;;;;;;;;;4.46;82.11;99896.41;5074234;28;19962;-81
2023/03/04 00:51:19;;;;;;;;;;;;;;;4.54;82.20;99891.28;5074145;28;19912;-82
2023/03/04 00:53:44;;;;;;;;;;;;;;;4.49;82.17;99898.16;5073794;28;20289;-82
2023/03/04 00:56:09;;;;;;;;;;;;;;;4.51;82.21;99896.47;5073867;28;19913;-82
2023/03/04 00:58:34;;;;;;;;;;;;;;;4.53;81.97;99897.34;5073340;28;19965;-82
2023/03/04 01:01:00;;;;;;;;;;;;;;;4.36;82.62;99888.44;5073789;28;20342;-82
2023/03/04 01:03:25;;;;;;;;;;;;;;;4.43;82.55;99892.84;5073620;28;20453;-82
2023/03/04 01:05:51;;;;;;;;;;;;;;;4.56;81.90;99892.16;5073664;28;19962;-81
2023/03/04 01:08:16;;;;;;;;;;;;;;;4.47;79.46;99895.53;5073473;28;20243;-81
2023/03/04 01:10:41;;;;;;;;;;;;;;;4.07;79.76;99891.50;5073595;28;19924;-82
2023/03/04 01:13:07;;;;;;;;;;;;;;;3.67;80.57;99896.97;5072820;28;19919;-82
2023/03/04 01:15:32;;;;;;;;;;;;;;;3.89;80.83;99885.16;5073285;28;19923;-82
2023/03/04 01:17:57;;;;;;;;;;;;;;;4.02;80.63;99877.53;5071918;28;19912;-81
2023/03/04 01:20:23;;;;;;;;;;;;;;;4.06;80.64;99874.06;5072768;28;19916;-82
2023/03/04 01:22:48;;;;;;;;;;;;;;;4.02;80.47;99882.75;5073249;28;19920;-82
2023/03/04 01:25:14;;;;;;;;;;;;;;;3.98;80.96;99878.31;5073383;28;20309;-82
2023/03/04 01:27:39;;;;;;;;;;;;;;;4.01;80.63;99868.78;5072517;28;19916;-82
2023/03/04 01:30:04;;;;;;;;;;;;;;;4.05;80.62;99878.44;5071909;28;19963;-83
2023/03/04 01:32:30;;;;;;;;;;;;;;;4.10;80.97;99878.50;5073118;28;19916;-84
2023/03/04 01:34:55;;;;;;;;;;;;;;;4.22;80.49;99878.66;5073107;28;19916;-92
2023/03/04 01:37:20;;;;;;;;;;;;;;;4.22;80.85;99878.66;5072808;28;19917;-82
2023/03/04 01:39:46;;;;;;;;;;;;;;;4.28;80.62;99877.88;5073104;28;19935;-81
2023/03/04 01:42:17;;;;;;;;;;;;;;;4.29;80.62;99880.50;5072482;28;20321;-81
2023/03/04 01:44:42;;;;;;;;;;;;;;;4.30;80.45;99873.56;5072856;28;20429;-82
2023/03/04 01:47:08;;;;;;;;;;;;;;;4.34;80.91;99875.34;5072272;28;19999;-82
2023/03/04 01:49:33;;;;;;;;;;;;;;;4.24;81.81;99873.47;5072563;28;20003;-83
2023/03/04 01:51:58;;;;;;;;;;;;;;;4.28;81.57;99870.06;5072563;28;20713;-82
2023/03/04 01:54:24;;;;;;;;;;;;;;;4.27;81.98;99868.28;5072244;28;19916;-82
2023/03/04 01:56:51;;;;;;;;;;;;;;;4.35;81.99;99857.94;5072279;28;19927;-81
2023/03/04 01:59:18;;;;;;;;;;;;;;;4.30;82.10;99863.09;5072035;28;19970;-82
2023/03/04 02:01:48;;;;;;;;;;;;;;;4.28;82.21;99859.59;5072381;28;19920;-83
2023/03/04 02:04:14;;;;;;;;;;;;;;;4.33;82.48;99855.31;5072506;28;19912;-82
2023/03/04 02:06:40;;;;;;;;;;;;;;;4.38;82.45;99864.06;5072638;28;19999;-82
2023/03/04 02:09:06;;;;;;;;;;;;;;;4.46;82.70;99859.84;5072018;28;19959;-83
2023/03/04 02:11:32;;;;;;;;;;;;;;;4.59;82.72;99860.00;5072349;28;20403;-88
2023/03/04 02:13:58;;;;;;;;;;;;;;;4.65;82.55;99852.22;5071939;28;19970;-82
2023/03/04 02:16:23;;;;;;;;;;;;;;;4.62;82.79;99852.19;5071662;28;19912;-82
2023/03/04 02:18:48;;;;;;;;;;;;;;;4.55;83.50;99851.22;5071784;28;19923;-82
2023/03/04 02:21:20;;;;;;;;;;;;;;;4.57;83.57;99848.63;5072231;28;19917;-82
2023/03/04 02:23:48;;;;;;;;;;;;;;;4.67;83.98;99845.25;5071909;28;19913;-81
2023/03/04 02:26:20;;;;;;;;;;;;;;;4.77;83.68;99848.84;5071645;28;20424;-82
2023/03/04 02:28:47;;;;;;;;;;;;;;;4.81;83.32;99845.41;5071572;28;20065;-83
2023/03/04 02:31:23;;;;;;;;;;;;;;;4.81;83.43;99827.97;5070922;28;19916;-82
2023/03/04 02:33:49;;;;;;;;;;;;;;;4.80;83.69;99839.31;5071719;28;19912;-82
2023/03/04 02:36:14;;;;;;;;;;;;;;;4.74;83.88;99839.25;5071657;28;19912;-82
2023/03/04 02:38:40;;;;;;;;;;;;;;;4.81;83.82;99827.97;5071095;28;19959;-82
2023/03/04 02:41:05;;;;;;;;;;;;;;;4.39;85.05;99829.25;5070975;28;20012;-82
2023/03/04 02:43:30;;;;;;;;;;;;;;;4.63;85.06;99825.19;5071518;28;19916;-82
2023/03/04 02:45:56;;;;;;;;;;;;;;;4.38;85.26;99822.28;5071858;28;20003;-82
2023/03/04 02:48:22;;;;;;;;;;;;;;;4.47;85.79;99826.75;5071857;28;20019;-83
2023/03/04 02:50:49;;;;;;;;;;;;;;;4.44;85.75;99817.13;5070911;28;19974;-82
2023/03/04 02:53:15;;;;;;;;;;;;;;;4.60;85.76;99823.44;5071380;28;19970;-84
2023/03/04 02:55:43;;;;;;;;;;;;;;;4.68;84.98;99820.91;5070964;28;19920;-82
2023/03/04 02:58:09;;;;;;;;;;;;;;;4.72;85.40;99827.88;5069814;28;19923;-82
2023/03/04 03:00:35;;;;;;;;;;;;;;;4.76;85.37;99826.22;5071343;28;19913;-84
2023/03/04 03:03:00;;;;;;;;;;;;;;;4.87;84.80;99829.81;5071460;28;19917;-82
2023/03/04 03:05:27;;;;;;;;;;;;;;;5.01;83.18;99835.16;5070895;28;19920;-82
2023/03/04 03:07:53;;;;;;;;;;;;;;;4.86;83.37;99835.88;5071059;28;19920;-82
2023/03/04 03:10:18;;;;;;;;;;;;;;;4.79;84.02;99848.00;5070903;28;19923;-90
2023/03/04 03:12:44;;;;;;;;;;;;;;;4.56;84.52;99844.28;5071289;28;19912;-82
2023/03/04 03:15:09;;;;;;;;;;;;;;;4.63;84.43;99846.97;5071381;28;20283;-82
2023/03/04 03:17:35;;;;;;;;;;;;;;;4.78;83.83;99851.47;5070989;28;19931;-82
2023/03/04 03:20:00;;;;;;;;;;;;;;;4.73;83.06;99850.56;5071312;28;19920;-82
2023/03/04 03:22:25;;;;;;;;;;;;;;;4.65;82.82;99855.69;5071339;28;20381;-82
2023/03/04 03:24:51;;;;;;;;;;;;;;;4.60;82.60;99854.78;5070713;28;19912;-84
2023/03/04 03:27:16;;;;;;;;;;;;;;;4.51;82.67;99857.28;5070388;28;19916;-82
2023/03/04 03:29:41;;;;;;;;;;;;;;;4.50;82.28;99857.25;5070931;28;19912;-83
2023/03/04 03:32:07;;;;;;;;;;;;;;;4.50;82.65;99847.69;5071234;28;19917;-82
2023/03/04 03:34:33;;;;;;;;;;;;;;;4.50;82.60;99846.81;5071087;28;20405;-82
2023/03/04 03:36:58;;;;;;;;;;;;;;;4.59;82.73;99857.38;5070721;28;20394;-82
2023/03/04 03:39:23;;;;;;;;;;;;;;;4.49;83.21;99856.38;5070835;28;19912;-83
2023/03/04 03:41:49;;;;;;;;;;;;;;;4.52;82.99;99852.94;5070596;28;20454;-82
2023/03/04 03:44:14;;;;;;;;;;;;;;;4.21;84.53;99852.53;5070672;28;19919;-82
2023/03/04 03:46:39;;;;;;;;;;;;;;;4.19;85.37;99852.50;5070617;28;20318;-83
2023/03/04 03:49:05;;;;;;;;;;;;;;;4.22;85.15;99852.56;5070922;28;19912;-83
2023/03/04 03:51:30;;;;;;;;;;;;;;;4.46;85.07;99854.63;5069306;28;19924;-83
2023/03/04 03:53:55;;;;;;;;;;;;;;;4.11;83.35;99852.41;5072427;28;19951;-82
2023/03/04 03:56:21;;;;;;;;;;;;;;;4.05;84.50;99852.31;5074537;28;19990;-82
2023/03/04 03:58:46;;;;;;;;;;;;;;;4.10;84.69;99852.38;5061828;28;19917;-83
2023/03/04 04:01:11;;;;;;;;;;;;;;;4.19;84.17;99851.66;5054630;28;19912;-83
2023/03/04 04:03:36;;;;;;;;;;;;;;;4.27;83.63;99850.00;5070349;28;19916;-82
2023/03/04 04:06:02;;;;;;;;;;;;;;;4.15;83.02;99849.84;5074273;28;19935;-82
2023/03/04 04:08:27;;;;;;;;;;;;;;;4.05;83.10;99852.31;5073995;28;19912;-82
2023/03/04 04:10:52;;;;;;;;;;;;;;;3.41;84.64;99860.03;5074362;28;20393;-82
2023/03/04 04:13:18;;;;;;;;;;;;;;;3.54;85.09;99872.44;5073900;28;20398;-82
2023/03/04 04:15:43;;;;;;;;;;;;;;;3.49;84.87;99862.78;5074740;28;19917;-82
2023/03/04 04:18:08;;;;;;;;;;;;;;;3.65;85.25;99858.69;5074465;28;19920;-82
2023/03/04 04:20:34;;;;;;;;;;;;;;;3.83;84.90;99856.38;5073944;28;19916;-83
2023/03/04 04:22:59;;;;;;;;;;;;;;;3.93;83.99;99859.97;5074608;28;19913;-83
2023/03/04 04:25:24;;;;;;;;;;;;;;;3.96;83.09;99854.81;5074228;28;19920;-85
2023/03/04 04:27:50;;;;;;;;;;;;;;;4.01;83.01;99862.69;5073504;28;19913;-83
2023/03/04 04:30:15;;;;;;;;;;;;;;;4.17;82.31;99858.56;5074361;28;19913;-84
2023/03/04 04:32:41;;;;;;;;;;;;;;;4.08;82.15;99859.34;5074585;28;19919;-91
2023/03/04 04:35:06;;;;;;;;;;;;;;;4.06;82.59;99859.31;5074322;28;19913;-84
2023/03/04 04:37:31;;;;;;;;;;;;;;;4.05;81.88;99864.50;5074328;28;19913;-82
2023/03/04 04:39:57;;;;;;;;;;;;;;;3.49;83.12;99868.00;5073753;28;20382;-82
2023/03/04 04:42:22;;;;;;;;;;;;;;;3.57;83.36;99876.84;5074038;28;20421;-82
2023/03/04 04:44:48;;;;;;;;;;;;;;;3.76;83.15;99878.88;5074128;28;19962;-82
2023/03/04 04:47:13;;;;;;;;;;;;;;;3.72;83.75;99879.69;5073919;28;19923;-82
2023/03/04 04:49:38;;;;;;;;;;;;;;;3.82;82.38;99888.53;5073999;28;19951;-82
2023/03/04 04:52:04;;;;;;;;;;;;;;;3.70;82.48;99885.72;5074346;28;19919;-83
2023/03/04 04:54:29;;;;;;;;;;;;;;;3.79;82.54;99885.88;5073768;28;19959;-83
2023/03/04 04:56:54;;;;;;;;;;;;;;;3.69;82.18;99882.25;5074201;28;20068;-83
2023/03/04 04:59:20;;;;;;;;;;;;;;;3.46;82.87;99892.31;5074412;28;19927;-83
2023/03/04 05:01:45;;;;;;;;;;;;;;;3.31;83.60;99895.53;5073626;28;19936;-84
2023/03/04 05:04:10;;;;;;;;;;;;;;;3.22;84.23;99891.00;5074073;28;19973;-83
2023/03/04 05:06:36;;;;;;;;;;;;;;;2.81;85.20;99895.44;5073822;28;20393;-82
2023/03/04 05:09:01;;;;;;;;;;;;;;;2.82;85.77;99887.66;5074504;28;19912;-81
2023/03/04 05:11:27;;;;;;;;;;;;;;;2.74;86.98;99891.00;5074276;28;19923;-81
2023/03/04 05:13:52;;;;;;;;;;;;;;;2.97;86.65;99894.03;5073641;28;19927;-82
2023/03/04 05:16:18;;;;;;;;;;;;;;;3.04;86.09;99896.78;5073596;28;19923;-82
2023/03/04 05:18:43;;;;;;;;;;;;;;;3.07;86.03;99895.06;5073880;28;20358;-87
2023/03/04 05:21:09;;;;;;;;;;;;;;;3.16;85.71;99903.94;5073540;28;20717;-82
2023/03/04 05:23:36;;;;;;;;;;;;;;;3.31;85.80;99902.47;5073655;28;20285;-82
2023/03/04 05:26:02;;;;;;;;;;;;;;;3.28;85.17;99900.69;5072943;28;19916;-82
2023/03/04 05:28:27;;;;;;;;;;;;;;;3.31;85.48;99895.53;5073790;28;19958;-82
2023/03/04 05:30:53;;;;;;;;;;;;;;;3.37;86.09;99893.03;5071796;28;19959;-83
2023/03/04 05:33:18;;;;;;;;;;;;;;;3.41;85.75;99896.56;5073461;28;19924;-82
2023/03/04 05:35:44;;;;;;;;;;;;;;;3.43;85.86;99899.19;5073765;28;19970;-82
2023/03/04 05:38:11;;;;;;;;;;;;;;;3.55;85.64;99905.50;5072703;28;19934;-84
2023/03/04 05:40:36;;;;;;;;;;;;;;;3.79;85.52;99905.88;5068437;28;19939;-85
2023/03/04 05:43:02;;;;;;;;;;;;;;;3.71;85.66;99910.97;5067364;28;19999;-85
2023/03/04 05:45:27;;;;;;;;;;;;;;;3.94;85.19;99908.72;5072765;28;20313;-83
2023/03/04 05:47:53;;;;;;;;;;;;;;;4.01;84.71;99920.13;5072616;28;19912;-84
2023/03/04 05:50:18;;;;;;;;;;;;;;;4.05;84.81;99914.97;5071936;28;19970;-86
2023/03/04 05:52:44;;;;;;;;;;;;;;;4.14;85.46;99898.59;5069232;28;19979;-86
2023/03/04 05:55:09;;;;;;;;;;;;;;;4.30;84.15;99908.38;5070707;28;20386;-85
2023/03/04 05:57:35;;;;;;;;;;;;;;;4.28;84.47;99917.94;5072112;28;19920;-84
2023/03/04 06:00:00;;;;;;;;;;;;;;;4.30;84.39;99905.75;5072280;28;19935;-84
2023/03/04 06:02:25;;;;;;;;;;;;;;;4.23;84.35;99901.31;5069824;28;19913;-83
2023/03/04 06:04:51;;;;;;;;;;;;;;;4.20;85.22;99906.50;5072286;28;19955;-84
2023/03/04 06:07:17;;;;;;;;;;;;;;;4.36;85.21;99914.56;5072582;28;19913;-85
2023/03/04 06:09:44;;;;;;;;;;;;;;;4.34;84.66;99914.53;5072248;28;19913;-84
2023/03/04 06:12:09;;;;;;;;;;;;;;;4.40;84.83;99917.22;5071841;28;19995;-85
2023/03/04 06:14:34;;;;;;;;;;;;;;;4.49;85.36;99919.06;5072180;28;20373;-87
2023/03/04 06:17:00;;;;;;;;;;;;;;;4.66;84.56;99912.34;5071493;28;19917;-88
2023/03/04 06:19:25;;;;;;;;;;;;;;;4.63;84.67;99914.91;5068206;28;19921;-88
2023/03/04 06:21:50;;;;;;;;;;;;;;;4.65;84.36;99917.56;5056854;28;19924;-89
2023/03/04 06:24:16;;;;;;;;;;;;;;;4.71;84.90;99911.50;5073023;28;19956;-88
2023/03/04 06:26:41;;;;;;;;;;;;;;;4.77;84.39;99914.19;5072527;28;19947;-88
2023/03/04 06:29:06;;;;;;;;;;;;;;;4.81;84.12;99921.22;5072201;28;19916;-88
2023/03/04 06:31:31;;;;;;;;;;;;;;;4.71;83.80;99925.47;5072133;28;19972;-88
2023/03/04 06:33:57;;;;;;;;;;;;;;;4.53;83.62;99926.09;5071314;28;20034;-92
2023/03/04 06:36:22;;;;;;;;;;;;;;;4.54;84.15;99927.88;5070848;28;20453;-90
2023/03/04 06:38:47;;;;;;;;;;;;;;;4.64;82.87;99928.84;5070735;28;19913;-87
2023/03/04 06:41:13;;;;;;;;;;;;;;;4.61;83.38;99931.41;5071093;28;19998;-88
2023/03/04 06:43:39;;;;;;;;;;;;;;;4.79;83.69;99930.78;5071366;28;20302;-87
2023/03/04 06:46:05;;;;;;;;;;;;;;;4.80;83.84;99941.25;5071343;28;19912;-87
2023/03/04 06:48:30;;;;;;;;;;;;;;;4.87;83.62;99942.19;5071205;28;19916;-87
2023/03/04 06:50:55;;;;;;;;;;;;;;;4.90;83.78;99941.38;5070529;28;19916;-87
2023/03/04 06:53:21;;;;;;;;;;;;;;;5.11;83.09;99944.22;5070651;28;19920;-88
2023/03/04 06:55:47;;;;;;;;;;;;;;;4.60;85.47;99941.00;5070720;28;19916;-87
2023/03/04 06:58:12;;;;;;;;;;;;;;;4.91;85.43;99936.16;5069795;28;19924;-87
2023/03/04 07:00:37;;;;;;;;;;;;;;;4.91;85.42;99941.41;5070792;28;19916;-87
2023/03/04 07:03:03;;;;;;;;;;;;;;;5.06;85.62;99943.28;5069732;28;19918;-87
2023/03/04 07:05:28;;;;;;;;;;;;;;;5.09;85.67;99943.31;5068913;28;19986;-87
2023/03/04 07:07:53;;;;;;;;;;;;;;;5.27;86.41;99944.41;5062100;28;20353;-87
2023/03/04 07:10:19;;;;;;;;;;;;;;;5.54;85.53;99942.03;5071563;28;20026;-87
2023/03/04 07:12:44;;;;;;;;;;;;;;;5.66;85.01;99938.66;5070237;28;19967;-87
2023/03/04 07:15:10;;;;;;;;;;;;;;;5.62;85.26;99949.09;5058798;28;19943;-90
2023/03/04 07:17:35;;;;;;;;;;;;;;;5.70;85.58;99942.16;5063400;28;19923;-88
2023/03/04 07:20:01;;;;;;;;;;;;;;;6.03;85.18;99940.75;5070262;28;19916;-88
2023/03/04 07:22:26;;;;;;;;;;;;;;;6.14;85.11;99941.69;5070546;28;19964;-88
2023/03/04 07:24:51;;;;;;;;;;;;;;;6.21;84.87;99935.63;5069293;28;19920;-88
2023/03/04 07:27:16;;;;;;;;;;;;;;;6.38;83.36;99940.06;5068308;28;19927;-92
2023/03/04 07:29:42;;;;;;;;;;;;;;;6.39;82.55;99940.09;5070070;28;19923;-88
2023/03/04 07:32:07;;;;;;;;;;;;;;;6.29;83.19;99938.31;5070056;28;19913;-89
2023/03/04 07:34:33;;;;;;;;;;;;;;;5.89;85.10;99933.63;5068094;28;19916;-87
2023/03/04 07:36:58;;;;;;;;;;;;;;;5.86;84.84;99940.56;5070296;28;20011;-88
2023/03/04 07:39:23;;;;;;;;;;;;;;;5.88;85.54;99934.47;5068027;28;19966;-89
2023/03/04 07:41:49;;;;;;;;;;;;;;;6.08;86.17;99932.03;5070298;28;19912;-87
2023/03/04 07:44:14;;;;;;;;;;;;;;;6.29;84.46;99933.06;5071026;28;19912;-88
2023/03/04 07:46:39;;;;;;;;;;;;;;;6.20;84.83;99922.53;5070796;28;20408;-87
2023/03/04 07:49:05;;;;;;;;;;;;;;;6.33;84.57;99926.09;5070693;28;19912;-87
2023/03/04 07:51:30;;;;;;;;;;;;;;;6.58;83.28;99920.13;5070356;28;20401;-87
2023/03/04 07:53:57;;;;;;;;;;;;;;;6.66;83.05;99922.78;5070121;28;20389;-88
2023/03/04 07:56:25;;;;;;;;;;;;;;;6.67;82.63;99919.25;5070675;28;19912;-87
2023/03/04 07:58:52;;;;;;;;;;;;;;;6.67;81.89;99921.03;5070158;28;19938;-89
2023/03/04 08:01:25;;;;;;;;;;;;;;;6.82;82.32;99924.56;5070504;28;19912;-86
2023/03/04 08:03:51;;;;;;;;;;;;;;;6.72;81.90;99922.81;5070221;28;19916;-87
2023/03/04 08:06:17;;;;;;;;;;;;;;;6.85;81.86;99918.47;5070514;28;19985;-90
2023/03/04 08:08:43;;;;;;;;;;;;;;;6.95;81.62;99915.03;5070899;28;19912;-86
2023/03/04 08:11:10;;;;;;;;;;;;;;;7.06;81.28;99919.41;5070826;28;19931;-86
2023/03/04 08:13:35;;;;;;;;;;;;;;;7.10;81.97;99915.94;5070463;28;19912;-88
2023/03/04 08:16:01;;;;;;;;;;;;;;;7.22;81.79;99915.97;5070548;28;20305;-87
2023/03/04 08:18:26;;;;;;;;;;;;;;;7.32;80.11;99914.22;5068767;28;20489;-86
2023/03/04 08:20:52;;;;;;;;;;;;;;;7.36;80.76;99921.22;5071670;28;19947;-84
2023/03/04 08:23:18;;;;;;;;;;;;;;;7.39;80.82;99929.13;5072765;28;19916;-87
2023/03/04 08:25:44;;;;;;;;;;;;;;;7.47;81.37;99929.13;5072273;28;20275;-87
2023/03/04 08:28:11;;;;;;;;;;;;;;;7.42;81.64;99923.88;5071521;28;19913;-88
2023/03/04 08:30:37;;;;;;;;;;;;;;;7.48;81.85;99920.38;5071765;28;19912;-88
2023/03/04 08:33:02;;;;;;;;;;;;;;;7.79;80.71;99925.66;5071501;28;20302;-87
2023/03/04 08:35:28;;;;;;;;;;;;;;;7.41;82.18;99929.97;5071710;28;19912;-88
2023/03/04 08:37:53;;;;;;;;;;;;;;;7.31;84.24;99917.72;5071461;28;19935;-88
2023/03/04 08:40:18;;;;;;;;;;;;;;;7.71;82.52;99920.41;5075847;28;19966;-88
2023/03/04 08:42:44;;;;;;;;;;;;;;;7.76;82.87;99918.66;5076939;28;19913;-88
2023/03/04 08:45:09;;;;;;;;;;;;;;;7.40;83.54;99917.75;5075724;28;19908;-89
2023/03/04 08:47:35;;;;;;;;;;;;;;;7.65;83.84;99917.78;5075477;28;19919;-87
2023/03/04 08:50:00;;;;;;;;;;;;;;;7.56;82.95;99909.91;5076040;28;20073;-88
2023/03/04 08:52:27;;;;;;;;;;;;;;;7.46;83.93;99906.38;5074994;28;20065;-88
2023/03/04 08:54:52;;;;;;;;;;;;;;;7.97;82.39;99907.25;5076108;28;19943;-89
2023/03/04 08:57:17;;;;;;;;;;;;;;;8.01;80.77;99898.47;5074744;28;20386;-88
2023/03/04 08:59:43;;;;;;;;;;;;;;;7.77;81.50;99902.03;5076743;28;19912;-87
2023/03/04 09:02:08;;;;;;;;;;;;;;;7.79;83.19;99909.91;5076323;28;19919;-88
2023/03/04 09:04:33;;;;;;;;;;;;;;;8.04;81.96;99903.72;5076467;28;19912;-90
2023/03/04 09:06:59;;;;;;;;;;;;;;;8.12;80.86;99908.09;5076279;28;20330;-88
2023/03/04 09:09:24;;;;;;;;;;;;;;;8.08;80.43;99894.13;5076839;28;20305;-88
2023/03/04 09:11:49;;;;;;;;;;;;;;;8.19;80.88;99902.84;5075242;28;19955;-88
2023/03/04 09:14:15;;;;;;;;;;;;;;;8.34;80.59;99896.69;5077626;28;19980;-89
2023/03/04 09:16:41;;;;;;;;;;;;;;;8.69;78.87;99895.69;5075519;28;19961;-89
2023/03/04 09:19:09;;;;;;;;;;;;;;;8.86;79.86;99906.16;5076572;28;19909;-89
2023/03/04 09:21:36;;;;;;;;;;;;;;;9.18;78.03;99902.47;5076858;28;19923;-90
2023/03/04 09:24:02;;;;;;;;;;;;;;;9.32;77.82;99898.00;5074862;28;20305;-89
2023/03/04 09:26:28;;;;;;;;;;;;;;;9.09;77.25;99887.63;5078418;28;19912;-86
2023/03/04 09:28:55;;;;;;;;;;;;;;;9.12;77.94;99889.38;5077028;28;19912;-88
2023/03/04 09:31:20;;;;;;;;;;;;;;;9.52;77.08;99877.69;5076527;28;19916;-88
2023/03/04 09:33:45;;;;;;;;;;;;;;;9.06;77.24;99877.09;5089335;28;19967;-85
2023/03/04 09:36:11;;;;;;;;;;;;;;;9.32;77.68;99866.41;5093646;28;19912;-84
2023/03/04 09:38:38;;;;;;;;;;;;;;;9.56;76.93;99867.13;5087536;28;19959;-88
2023/03/04 09:41:08;;;;;;;;;;;;;;;9.73;77.83;99866.97;5077362;28;19942;-87
2023/03/04 09:43:34;;;;;;;;;;;;;;;9.78;76.59;99861.66;5078410;28;19958;-89
2023/03/04 09:46:02;;;;;;;;;;;;;;;9.93;74.88;99853.63;5078887;28;19913;-90
2023/03/04 09:48:32;;;;;;;;;;;;;;;10.13;73.93;99861.34;5077615;28;20007;-89
2023/03/04 09:50:58;;;;;;;;;;;;;;;10.16;74.71;99860.41;5077041;28;19919;-89
2023/03/04 09:53:39;;;;;;;;;;;;;;;10.50;72.37;99860.06;5078682;28;20014;-90
2023/03/04 09:56:06;;;;;;;;;;;;;;;10.52;72.35;99863.56;5073985;28;19912;-90
2023/03/04 09:58:53;;;;;;;;;;;;;;;10.43;72.91;99861.03;5075390;28;20038;-91
2023/03/04 10:01:25;;;;;;;;;;;;;;;10.18;73.90;99861.28;5075871;28;19999;-89
2023/03/04 10:04:13;;;;;;;;;;;;;;;10.51;72.45;99862.66;5074538;28;20014;-89
2023/03/04 10:06:39;;;;;;;;;;;;;;;10.32;71.94;99853.22;5076239;28;19916;-88
2023/03/04 10:09:04;;;;;;;;;;;;;;;10.45;71.29;99853.97;5075037;28;20388;-89
2023/03/04 10:11:41;;;;;;;;;;;;;;;10.75;71.63;99843.03;5074311;28;19924;-90
2023/03/04 10:14:19;;;;;;;;;;;;;;;11.22;68.74;99847.66;5076352;28;19913;-89
2023/03/04 10:16:46;;;;;;;;;;;;;;;11.10;69.25;99846.06;5074595;28;19913;-90
2023/03/04 10:19:12;;;;;;;;;;;;;;;11.06;68.56;99839.97;5074629;28;19915;-87
2023/03/04 10:21:41;;;;;;;;;;;;;;;11.33;68.14;99829.88;5073808;28;19917;-86
2023/03/04 10:24:10;;;;;;;;;;;;;;;11.01;69.40;99835.63;5074544;28;19916;-90
2023/03/04 10:26:36;;;;;;;;;;;;;;;11.07;68.06;99825.84;5072335;28;20077;-90
2023/03/04 10:29:05;;;;;;;;;;;;;;;11.18;68.93;99827.47;5075060;28;19961;-89
2023/03/04 10:31:36;;;;;;;;;;;;;;;11.31;66.72;99820.22;5072913;28;20007;-86
2023/03/04 10:34:05;;;;;;;;;;;;;;;11.26;68.12;99813.25;5072686;28;20377;-92
2023/03/04 10:36:31;;;;;;;;;;;;;;;11.39;68.28;99810.41;5072964;28;20065;-89
2023/03/04 10:39:01;;;;;;;;;;;;;;;11.15;68.65;99803.75;5071635;28;19947;-92
2023/03/04 10:41:27;;;;;;;;;;;;;;;10.60;68.88;99801.03;5069756;28;19912;-90
2023/03/04 10:43:58;;;;;;;;;;;;;;;10.28;71.02;99796.13;5071005;28;19918;-91
2023/03/04 10:46:25;;;;;;;;;;;;;;;10.33;70.91;99802.25;5071341;28;19966;-89
2023/03/04 10:48:50;;;;;;;;;;;;;;;10.71;70.47;99800.88;5070642;28;19976;-89
2023/03/04 10:51:20;;;;;;;;;;;;;;;10.97;71.35;99791.69;5069813;28;19916;-92
2023/03/04 10:53:48;;;;;;;;;;;;;;;10.91;70.63;99796.19;5070779;28;19912;-92
2023/03/04 10:56:45;;;;;;;;;;;;;;;11.14;70.50;99794.06;5069428;28;19912;-89
2023/03/04 10:59:29;;;;;;;;;;;;;;;11.10;70.39;99786.19;5008453;28;20350;-89
2023/03/04 11:01:54;;;;;;;;;;;;;;;11.17;71.12;99783.47;5008907;28;19920;-90
2023/03/04 11:04:24;;;;;;;;;;;;;;;11.10;70.96;99774.78;5009239;28;19921;-89
2023/03/04 11:06:49;;;;;;;;;;;;;;;10.80;71.83;99770.81;5008417;28;20012;-87
2023/03/04 11:09:33;;;;;;;;;;;;;;;11.33;72.07;99753.28;5008457;28;20008;-90
2023/03/04 11:11:59;;;;;;;;;;;;;;;11.37;69.01;99751.44;5008957;28;20398;-92
2023/03/04 11:14:29;;;;;;;;;;;;;;;11.53;70.36;99733.56;5008631;28;19914;-92
2023/03/04 11:16:56;;;;;;;;;;;;;;;11.64;70.22;99736.88;5008610;28;19979;-88
2023/03/04 11:19:22;;;;;;;;;;;;;;;11.80;70.00;99738.34;5008245;28;19957;-88
2023/03/04 11:21:48;;;;;;;;;;;;;;;11.92;70.09;99729.31;5008116;28;19924;-88
2023/03/04 11:24:18;;;;;;;;;;;;;;;12.22;67.98;99734.00;5008142;28;19913;-89
2023/03/04 11:26:50;;;;;;;;;;;;;;;12.09;69.68;99725.47;5007927;28;20008;-90
2023/03/04 11:29:22;;;;;;;;;;;;;;;12.10;67.69;99721.94;5008383;28;19914;-88
2023/03/04 11:31:51;;;;;;;;;;;;;;;11.84;68.38;99728.56;5008106;28;20419;-89
2023/03/04 11:34:35;;;;;;;;;;;;;;;11.92;68.51;99724.03;5008001;28;19959;-87
2023/03/04 11:37:06;;;;;;;;;;;;;;;12.14;68.40;99723.59;5069886;28;19912;-88
2023/03/04 11:39:37;;;;;;;;;;;;;;;12.30;65.33;99732.09;5068752;28;19927;-89
2023/03/04 11:42:32;;;;;;;;;;;;;;;12.34;65.28;99718.75;5069931;28;19962;-89
2023/03/04 11:44:57;;;;;;;;;;;;;;;12.08;66.54;99711.38;4988919;28;19929;-89
2023/03/04 11:47:40;;;;;;;;;;;;;;;11.74;66.42;99706.75;4988474;28;19920;-88
2023/03/04 11:50:11;;;;;;;;;;;;;;;11.75;67.17;99707.59;4972352;28;19921;-87
2023/03/04 11:52:48;;;;;;;;;;;;;;;11.62;67.22;99699.91;4988175;28;19969;-89
2023/03/04 11:55:23;;;;;;;;;;;;;;;11.69;66.73;99705.94;4988871;28;19914;-87
2023/03/04 11:57:54;;;;;;;;;;;;;;;11.35;67.38;99703.94;4988264;28;19918;-93
2023/03/04 12:00:19;;;;;;;;;;;;;;;11.36;67.67;99710.97;4988834;28;20379;-91
2023/03/04 12:02:44;;;;;;;;;;;;;;;11.17;67.50;99698.97;4987722;28;20067;-89
2023/03/04 12:05:10;;;;;;;;;;;;;;;11.40;68.77;99699.47;4988833;28;19918;-87
2023/03/04 12:07:42;;;;;;;;;;;;;;;11.41;68.32;99698.53;4988101;28;19913;-92
2023/03/04 12:10:39;;;;;;;;;;;;;;;11.47;67.86;99695.78;4988401;28;20470;-89
2023/03/04 12:13:06;;;;;;;;;;;;;;;11.61;67.68;99692.88;4949056;28;19915;-90
2023/03/04 12:15:40;;;;;;;;;;;;;;;11.65;67.12;99686.66;4937968;29;19914;-89
2023/03/04 12:18:17;;;;;;;;;;;;;;;11.52;68.70;99681.63;4953345;29;19912;-89
2023/03/04 12:21:01;;;;;;;;;;;;;;;11.97;66.49;99679.88;4966917;28;19959;-90
2023/03/04 12:23:45;;;;;;;;;;;;;;;11.97;66.96;99685.16;5011781;28;20283;-88
2023/03/04 12:26:29;;;;;;;;;;;;;;;12.13;67.36;99680.41;5011487;28;19956;-88
2023/03/04 12:28:54;;;;;;;;;;;;;;;12.39;66.71;99673.69;5011495;28;20383;-89
2023/03/04 12:31:38;;;;;;;;;;;;;;;12.58;62.33;99673.25;5011535;28;19917;-90
2023/03/04 12:34:15;;;;;;;;;;;;;;;12.79;63.12;99666.56;5011956;28;19964;-91
2023/03/04 12:36:43;;;;;;;;;;;;;;;12.46;62.64;99667.34;4995431;28;20054;-89
2023/03/04 12:39:26;;;;;;;;;;;;;;;12.48;63.38;99665.53;5011849;28;20026;-89
2023/03/04 12:42:08;;;;;;;;;;;;;;;12.55;63.20;99666.25;5011303;28;20780;-88
2023/03/04 12:44:59;;;;;;;;;;;;;;;12.39;64.38;99671.03;5011727;28;19920;-91
2023/03/04 12:47:24;;;;;;;;;;;;;;;12.00;66.18;99657.78;5012853;28;20567;-90
2023/03/04 12:50:06;;;;;;;;;;;;;;;11.79;67.52;99661.72;5072201;28;19916;-90
2023/03/04 12:52:58;;;;;;;;;;;;;;;12.15;65.57;99654.81;5072664;28;19912;-89
2023/03/04 12:55:29;;;;;;;;;;;;;;;12.37;64.15;99654.31;5069654;28;19920;-89